Time;durP1;ratioP1;P1;durP2;ratioP2;P2;SDS_P1;SDS_P2;PMS_P1;PMS_P2;Temp;Humidity;BMP_temperature;BMP_pressure;BME280_temperature;BME280_humidity;BME280_pressure;Samples;Min_cycle;Max_cycle;Signal;HPM_P1;HPM_P2
2023/07/29 00:00:56;;;;;;;10.68;7.18;;;18.40;99.90;;;;;;5057962;28;20227;-73
2023/07/29 00:03:44;;;;;;;8.00;7.20;;;18.40;99.90;;;;;;5057166;28;20247;-73
2023/07/29 00:06:34;;;;;;;8.70;7.88;;;18.40;99.90;;;;;;5043683;28;21041;-74
2023/07/29 00:09:23;;;;;;;9.35;7.07;;;18.40;99.90;;;;;;5040593;28;20242;-73
2023/07/29 00:12:13;;;;;;;9.95;7.45;;;18.40;99.90;;;;;;5042804;28;20221;-72
2023/07/29 00:15:02;;;;;;;10.57;7.75;;;18.40;99.90;;;;;;5046314;28;20244;-72
2023/07/29 00:17:51;;;;;;;9.57;8.30;;;18.50;99.90;;;;;;5051058;28;20902;-73
2023/07/29 00:20:43;;;;;;;11.93;8.23;;;18.40;99.90;;;;;;5050851;28;20231;-74
2023/07/29 00:23:32;;;;;;;10.73;7.97;;;18.50;99.90;;;;;;5057015;28;20213;-74
2023/07/29 00:26:21;;;;;;;9.90;8.75;;;18.40;99.90;;;;;;5057071;28;20224;-73
2023/07/29 00:29:11;;;;;;;10.82;8.63;;;18.40;99.90;;;;;;5059745;28;20226;-73
2023/07/29 00:32:00;;;;;;;10.63;9.52;;;18.40;99.90;;;;;;5037018;28;20224;-73
2023/07/29 00:34:49;;;;;;;12.43;9.80;;;18.40;99.90;;;;;;5057342;28;20291;-73
2023/07/29 00:37:39;;;;;;;11.27;9.90;;;18.50;99.90;;;;;;5060557;28;20362;-75
2023/07/29 00:40:30;;;;;;;12.63;11.27;;;18.50;99.90;;;;;;5056948;28;20235;-73
2023/07/29 00:43:19;;;;;;;13.48;11.60;;;18.50;99.90;;;;;;5060203;28;20690;-74
2023/07/29 00:46:10;;;;;;;19.25;12.30;;;18.50;99.90;;;;;;5057049;28;20242;-76
2023/07/29 00:48:59;;;;;;;18.38;13.63;;;18.50;99.90;;;;;;5056951;28;20298;-75
2023/07/29 00:51:48;;;;;;;15.95;12.75;;;18.50;99.90;;;;;;5047569;28;20244;-74
2023/07/29 00:54:37;;;;;;;15.35;13.57;;;18.50;99.90;;;;;;5057645;28;20225;-74
2023/07/29 00:57:30;;;;;;;16.70;14.13;;;18.50;99.90;;;;;;5043149;28;20240;-73
2023/07/29 01:00:20;;;;;;;16.13;14.10;;;18.40;99.90;;;;;;5051345;28;20309;-73
2023/07/29 01:03:10;;;;;;;16.48;14.55;;;18.30;99.90;;;;;;5039791;28;20634;-74
2023/07/29 01:06:10;;;;;;;21.33;14.75;;;18.30;99.90;;;;;;5057726;28;20569;-72
2023/07/29 01:09:03;;;;;;;16.73;14.50;;;18.30;99.90;;;;;;5053825;28;20213;-72
2023/07/29 01:12:00;;;;;;;17.40;14.60;;;18.40;99.90;;;;;;5035935;28;20224;-72
2023/07/29 01:15:11;;;;;;;17.52;15.00;;;18.30;99.90;;;;;;5052882;28;20219;-72
2023/07/29 01:18:05;;;;;;;21.60;15.07;;;18.40;99.90;;;;;;5038376;28;20346;-71
2023/07/29 01:21:00;;;;;;;17.98;14.80;;;18.40;99.90;;;;;;5045672;28;20216;-72
2023/07/29 01:23:53;;;;;;;18.38;14.55;;;18.40;99.90;;;;;;5056550;28;20381;-72
2023/07/29 01:26:42;;;;;;;16.52;14.80;;;18.30;99.90;;;;;;5053184;28;20243;-72
2023/07/29 01:29:31;;;;;;;17.75;14.98;;;18.30;99.90;;;;;;5050123;28;20220;-72
2023/07/29 01:32:24;;;;;;;17.05;14.63;;;18.30;99.90;;;;;;5058406;28;20557;-72
2023/07/29 01:35:20;;;;;;;18.63;15.85;;;18.30;99.90;;;;;;5041803;28;20692;-71
2023/07/29 01:38:17;;;;;;;16.40;14.00;;;18.30;99.90;;;;;;5047160;28;20690;-74
2023/07/29 01:41:09;;;;;;;18.23;15.10;;;18.10;99.90;;;;;;5042036;28;20359;-74
2023/07/29 01:43:58;;;;;;;21.52;14.90;;;18.20;99.90;;;;;;5052534;28;20223;-73
2023/07/29 01:46:48;;;;;;;19.67;16.02;;;18.20;99.90;;;;;;5053202;28;20216;-71
2023/07/29 01:49:37;;;;;;;18.08;15.07;;;18.10;99.90;;;;;;5044539;28;21363;-72
2023/07/29 01:52:26;;;;;;;19.00;14.55;;;18.00;99.90;;;;;;5050423;28;20693;-71
2023/07/29 01:55:15;;;;;;;18.13;14.90;;;18.10;99.90;;;;;;5038684;28;20752;-72
2023/07/29 01:58:05;;;;;;;21.75;14.63;;;18.10;99.90;;;;;;5058388;28;20220;-72
2023/07/29 02:00:57;;;;;;;18.83;14.65;;;18.10;99.90;;;;;;5036977;28;20224;-74
2023/07/29 02:03:45;;;;;;;17.83;14.55;;;18.00;99.90;;;;;;5035186;28;20692;-72
2023/07/29 02:06:34;;;;;;;20.48;14.52;;;18.00;99.90;;;;;;5053901;28;20595;-73
2023/07/29 02:09:28;;;;;;;17.55;14.20;;;18.00;99.90;;;;;;5051055;28;20220;-72
2023/07/29 02:12:16;;;;;;;17.70;14.15;;;18.00;99.90;;;;;;5038077;28;20311;-72
2023/07/29 02:15:08;;;;;;;18.08;14.05;;;17.90;99.90;;;;;;5054196;28;20231;-72
2023/07/29 02:17:59;;;;;;;18.67;13.90;;;17.80;99.90;;;;;;5040390;28;20615;-72
2023/07/29 02:20:49;;;;;;;16.30;13.82;;;17.70;99.90;;;;;;5044239;28;21060;-71
2023/07/29 02:23:41;;;;;;;19.58;14.98;;;17.80;99.90;;;;;;5054880;28;20224;-72
2023/07/29 02:26:30;;;;;;;20.02;14.50;;;17.80;99.90;;;;;;5053726;28;20510;-72
2023/07/29 02:29:19;;;;;;;21.33;13.95;;;17.80;99.90;;;;;;5055735;28;20853;-72
2023/07/29 02:32:10;;;;;;;17.67;13.88;;;17.70;99.90;;;;;;5054905;28;20239;-72
2023/07/29 02:34:59;;;;;;;19.45;14.32;;;17.60;99.90;;;;;;5038042;28;20216;-72
2023/07/29 02:37:48;;;;;;;17.38;13.50;;;17.60;99.90;;;;;;5041339;28;20224;-71
2023/07/29 02:40:41;;;;;;;19.05;14.60;;;17.70;99.90;;;;;;5045580;28;20216;-72
2023/07/29 02:43:30;;;;;;;17.15;14.57;;;17.70;99.90;;;;;;5046693;28;20956;-72
2023/07/29 02:46:19;;;;;;;18.20;14.30;;;17.70;99.90;;;;;;5036575;28;20232;-71
2023/07/29 02:49:09;;;;;;;18.23;15.02;;;17.60;99.90;;;;;;5054886;28;20949;-72
2023/07/29 02:51:59;;;;;;;21.08;14.20;;;17.60;99.90;;;;;;5041883;28;20323;-72
2023/07/29 02:54:48;;;;;;;20.08;15.15;;;17.60;99.90;;;;;;5053057;28;20220;-72
2023/07/29 02:57:43;;;;;;;19.33;14.20;;;17.50;99.90;;;;;;5047444;28;20234;-72
2023/07/29 03:00:33;;;;;;;19.35;15.45;;;17.50;99.90;;;;;;5055328;28;20264;-73
2023/07/29 03:03:21;;;;;;;18.30;14.75;;;17.60;99.90;;;;;;5062642;28;20236;-73
2023/07/29 03:06:13;;;;;;;20.05;14.98;;;17.50;99.90;;;;;;5057960;28;20714;-73
2023/07/29 03:09:02;;;;;;;22.25;14.95;;;17.50;99.90;;;;;;5068835;28;20254;-73
2023/07/29 03:11:52;;;;;;;23.23;15.75;;;17.50;99.90;;;;;;5070836;28;20254;-72
2023/07/29 03:14:42;;;;;;;23.20;15.98;;;17.50;99.90;;;;;;5074483;28;20219;-72
2023/07/29 03:17:31;;;;;;;25.15;16.08;;;17.50;99.90;;;;;;5057230;28;20227;-71
2023/07/29 03:20:20;;;;;;;22.60;16.85;;;17.50;99.90;;;;;;5057130;28;20394;-72
2023/07/29 03:23:11;;;;;;;20.75;16.45;;;17.60;99.90;;;;;;5077445;28;20703;-72
2023/07/29 03:26:00;;;;;;;23.40;16.70;;;17.60;99.90;;;;;;5056105;28;20373;-73
2023/07/29 03:28:50;;;;;;;20.38;16.17;;;17.60;99.90;;;;;;5056948;28;20219;-71
2023/07/29 03:31:39;;;;;;;22.05;17.00;;;17.60;99.90;;;;;;5075910;28;20222;-72
2023/07/29 03:34:28;;;;;;;20.02;16.88;;;17.60;99.90;;;;;;5065787;28;20285;-73
2023/07/29 03:37:16;;;;;;;21.38;16.33;;;17.60;99.90;;;;;;5068039;28;20323;-72
2023/07/29 03:40:09;;;;;;;20.00;16.90;;;17.70;99.90;;;;;;5061226;28;20208;-72
2023/07/29 03:42:57;;;;;;;20.02;16.95;;;17.60;99.90;;;;;;5073464;28;20231;-73
2023/07/29 03:45:47;;;;;;;21.50;17.17;;;17.70;99.90;;;;;;5062967;28;20222;-72
2023/07/29 03:48:36;;;;;;;19.58;16.10;;;17.70;99.90;;;;;;5072442;28;20231;-73
2023/07/29 03:51:25;;;;;;;19.38;16.08;;;17.60;99.90;;;;;;5058003;28;20231;-72
2023/07/29 03:54:14;;;;;;;21.33;15.02;;;17.60;99.90;;;;;;5083061;28;20322;-73
2023/07/29 03:57:05;;;;;;;19.20;15.43;;;17.70;99.90;;;;;;5081510;28;20568;-72
2023/07/29 03:59:54;;;;;;;19.70;15.65;;;17.70;99.90;;;;;;5066971;28;21258;-73
2023/07/29 04:02:45;;;;;;;17.65;15.02;;;17.80;99.90;;;;;;5065223;28;20239;-73
2023/07/29 04:05:35;;;;;;;17.27;14.80;;;17.90;99.90;;;;;;5063690;28;20333;-72
2023/07/29 04:08:24;;;;;;;17.17;15.30;;;17.90;99.90;;;;;;5077322;28;20293;-72
2023/07/29 04:11:13;;;;;;;18.38;14.65;;;17.90;99.90;;;;;;5059851;28;20339;-73
2023/07/29 04:14:03;;;;;;;17.23;15.40;;;17.90;99.90;;;;;;5063722;28;20815;-72
2023/07/29 04:16:52;;;;;;;16.08;13.82;;;18.00;99.90;;;;;;5058290;28;20373;-75
2023/07/29 04:19:41;;;;;;;21.55;14.40;;;18.00;99.90;;;;;;5077447;28;20357;-74
2023/07/29 04:22:30;;;;;;;17.75;14.55;;;17.90;99.90;;;;;;5072864;28;20238;-74
2023/07/29 04:25:20;;;;;;;16.73;14.93;;;17.90;99.90;;;;;;5064686;28;20236;-73
2023/07/29 04:28:09;;;;;;;15.20;13.57;;;17.90;99.90;;;;;;5063928;28;20238;-73
2023/07/29 04:30:59;;;;;;;14.93;13.43;;;18.00;99.90;;;;;;5078890;28;20720;-73
2023/07/29 04:33:51;;;;;;;15.55;13.88;;;18.10;99.90;;;;;;5058793;28;20239;-73
2023/07/29 04:36:41;;;;;;;15.63;13.43;;;18.10;99.90;;;;;;5061967;28;20919;-73
2023/07/29 04:39:33;;;;;;;15.40;13.80;;;18.10;99.90;;;;;;5075292;28;20228;-73
2023/07/29 04:42:22;;;;;;;16.77;14.95;;;18.20;99.90;;;;;;5060937;28;20729;-73
2023/07/29 04:45:11;;;;;;;15.43;12.90;;;18.30;99.90;;;;;;5074008;28;20232;-70
2023/07/29 04:48:02;;;;;;;14.98;13.45;;;18.30;99.90;;;;;;5059083;28;20600;-71
2023/07/29 04:50:51;;;;;;;14.77;13.20;;;18.40;99.90;;;;;;5052488;28;20312;-73
2023/07/29 04:53:41;;;;;;;15.07;13.57;;;18.40;99.90;;;;;;5067675;28;20878;-73
2023/07/29 04:56:30;;;;;;;14.93;13.43;;;18.50;99.90;;;;;;5071408;28;20220;-73
2023/07/29 04:59:18;;;;;;;15.27;13.13;;;18.50;99.90;;;;;;5079222;28;20412;-72
2023/07/29 05:02:07;;;;;;;15.70;14.20;;;18.30;99.90;;;;;;5043611;28;20228;-72
2023/07/29 05:04:58;;;;;;;15.38;13.77;;;18.30;99.90;;;;;;5042883;28;20212;-72
2023/07/29 05:07:46;;;;;;;15.52;13.38;;;18.40;99.90;;;;;;5032652;28;20209;-72
2023/07/29 05:10:36;;;;;;;15.48;13.88;;;18.50;99.90;;;;;;5036614;28;20648;-72
2023/07/29 05:13:25;;;;;;;16.05;14.45;;;18.50;99.90;;;;;;5060181;28;20780;-73
2023/07/29 05:16:14;;;;;;;14.75;13.18;;;18.50;99.90;;;;;;5057579;28;20220;-73
2023/07/29 05:19:03;;;;;;;16.90;14.25;;;18.80;99.90;;;;;;5036382;28;20309;-73
2023/07/29 05:21:54;;;;;;;15.48;13.88;;;19.20;99.90;;;;;;5051607;28;20226;-72
2023/07/29 05:24:43;;;;;;;15.73;14.00;;;19.30;99.90;;;;;;5055204;28;20224;-73
2023/07/29 05:27:31;;;;;;;15.20;13.70;;;19.40;99.90;;;;;;5029491;28;20297;-73
2023/07/29 05:30:20;;;;;;;15.95;14.43;;;19.20;99.90;;;;;;5053999;28;20717;-73
2023/07/29 05:33:09;;;;;;;15.65;14.25;;;19.40;99.90;;;;;;5055738;28;20224;-74
2023/07/29 05:36:00;;;;;;;15.60;14.00;;;19.90;99.90;;;;;;5039947;28;20657;-74
2023/07/29 05:38:51;;;;;;;15.20;13.70;;;20.40;99.90;;;;;;5054643;28;20225;-73
2023/07/29 05:41:43;;;;;;;15.57;14.07;;;20.10;99.90;;;;;;5051516;28;20224;-73
2023/07/29 05:44:32;;;;;;;15.48;14.02;;;19.90;99.90;;;;;;5043320;28;20462;-71
2023/07/29 05:47:21;;;;;;;16.48;14.68;;;19.80;99.90;;;;;;5039383;28;20244;-71
2023/07/29 05:50:11;;;;;;;15.48;14.02;;;19.80;99.90;;;;;;5057421;28;20859;-71
2023/07/29 05:52:59;;;;;;;16.52;14.73;;;19.80;99.90;;;;;;5040620;28;20220;-72
2023/07/29 05:55:50;;;;;;;14.95;13.55;;;19.90;99.90;;;;;;5041660;28;20265;-72
2023/07/29 05:58:40;;;;;;;14.95;13.65;;;19.90;99.90;;;;;;5054391;28;20242;-71
2023/07/29 06:01:28;;;;;;;15.18;13.70;;;19.50;99.90;;;;;;5076473;28;20766;-72
2023/07/29 06:04:17;;;;;;;15.63;14.05;;;19.50;99.90;;;;;;5053360;28;20232;-71
2023/07/29 06:07:07;;;;;;;15.52;13.93;;;19.50;99.90;;;;;;5051423;28;20321;-70
2023/07/29 06:09:58;;;;;;;18.55;13.82;;;19.70;99.90;;;;;;5057810;28;20942;-71
2023/07/29 06:12:49;;;;;;;16.08;14.40;;;19.90;99.90;;;;;;5068306;28;20223;-70
2023/07/29 06:15:37;;;;;;;14.95;13.55;;;19.90;99.90;;;;;;5071006;28;20353;-69
2023/07/29 06:18:27;;;;;;;16.83;15.30;;;19.80;99.90;;;;;;5065906;28;20314;-71
2023/07/29 06:21:17;;;;;;;15.88;14.38;;;19.70;99.90;;;;;;5068568;28;20220;-72
2023/07/29 06:24:09;;;;;;;16.58;14.75;;;19.80;99.90;;;;;;5075540;28;20212;-73
2023/07/29 06:26:58;;;;;;;16.65;14.98;;;19.90;99.90;;;;;;5064427;28;20734;-71
2023/07/29 06:29:48;;;;;;;16.65;15.05;;;19.90;99.90;;;;;;5042629;28;20310;-72
2023/07/29 06:32:37;;;;;;;18.63;15.43;;;20.30;99.90;;;;;;5057471;28;21208;-72
2023/07/29 06:35:26;;;;;;;15.95;14.23;;;20.70;99.90;;;;;;5066133;28;20726;-71
2023/07/29 06:38:19;;;;;;;17.13;15.35;;;20.60;99.90;;;;;;5070834;28;20231;-72
2023/07/29 06:41:08;;;;;;;17.48;15.77;;;20.30;99.90;;;;;;5069712;28;20223;-72
2023/07/29 06:44:00;;;;;;;18.13;16.23;;;20.10;99.90;;;;;;5068158;28;20223;-71
2023/07/29 06:46:50;;;;;;;17.45;15.70;;;20.00;99.90;;;;;;5062759;28;20223;-71
2023/07/29 06:49:40;;;;;;;17.42;15.77;;;20.20;99.90;;;;;;5060302;28;20248;-71
2023/07/29 06:52:28;;;;;;;18.27;16.35;;;20.10;99.90;;;;;;5058175;28;20314;-72
2023/07/29 06:55:18;;;;;;;17.70;15.98;;;20.20;99.90;;;;;;5069055;28;20219;-72
2023/07/29 06:58:07;;;;;;;17.25;15.65;;;20.50;99.90;;;;;;5076221;28;20232;-72
2023/07/29 07:00:56;;;;;;;19.52;17.73;;;20.30;99.90;;;;;;5047069;28;20869;-74
2023/07/29 07:03:46;;;;;;;19.90;17.92;;;20.60;99.90;;;;;;5047630;28;20216;-72
2023/07/29 07:06:38;;;;;;;19.52;17.65;;;21.20;99.90;;;;;;5044125;28;20691;-73
2023/07/29 07:09:28;;;;;;;19.80;17.90;;;21.40;99.90;;;;;;5031098;28;20232;-73
2023/07/29 07:12:17;;;;;;;20.30;18.38;;;21.60;99.90;;;;;;5046254;28;20307;-75
2023/07/29 07:15:07;;;;;;;22.30;19.05;;;21.60;99.90;;;;;;5051080;28;20224;-73
2023/07/29 07:17:56;;;;;;;20.70;18.48;;;21.60;99.90;;;;;;5028172;28;21271;-73
2023/07/29 07:20:50;;;;;;;23.10;20.80;;;21.10;99.90;;;;;;5048615;28;20220;-73
2023/07/29 07:23:40;;;;;;;21.65;19.45;;;21.80;99.90;;;;;;5045180;28;20269;-72
2023/07/29 07:26:29;;;;;;;19.67;17.63;;;22.10;99.90;;;;;;5044991;28;20668;-71
2023/07/29 07:29:18;;;;;;;17.35;15.73;;;22.50;99.90;;;;;;5046580;28;20315;-70
2023/07/29 07:32:07;;;;;;;16.35;14.82;;;22.60;99.90;;;;;;5042214;28;20216;-72
2023/07/29 07:34:56;;;;;;;14.23;12.93;;;22.60;99.90;;;;;;5041851;28;20224;-71
2023/07/29 07:37:47;;;;;;;14.13;12.75;;;22.90;99.90;;;;;;5026029;28;20235;-70
2023/07/29 07:40:37;;;;;;;12.15;10.95;;;23.60;99.90;;;;;;5053622;28;20628;-70
2023/07/29 07:43:27;;;;;;;12.13;10.73;;;23.70;99.90;;;;;;5049244;28;20225;-71
2023/07/29 07:46:16;;;;;;;10.85;9.85;;;23.90;99.90;;;;;;5034708;28;20228;-72
2023/07/29 07:49:05;;;;;;;10.15;9.10;;;24.30;99.90;;;;;;5034896;28;20220;-72
2023/07/29 07:51:54;;;;;;;10.50;9.50;;;25.00;99.90;;;;;;5046809;28;20220;-72
2023/07/29 07:54:44;;;;;;;9.63;8.65;;;24.30;99.90;;;;;;5044705;28;20221;-74
2023/07/29 07:57:33;;;;;;;10.27;9.25;;;23.70;99.90;;;;;;5047266;28;20232;-72
2023/07/29 08:00:22;;;;;;;9.77;8.82;;;23.20;99.90;;;;;;5068793;28;20326;-74
2023/07/29 08:03:11;;;;;;;9.10;8.20;;;22.70;99.90;;;;;;5059964;28;20230;-73
2023/07/29 08:06:00;;;;;;;8.35;7.55;;;23.60;99.90;;;;;;5065306;28;20472;-72
2023/07/29 08:08:49;;;;;;;8.82;7.97;;;23.50;99.90;;;;;;5053787;28;20220;-71
2023/07/29 08:11:40;;;;;;;9.80;8.02;;;22.70;99.90;;;;;;5071389;28;21853;-73
2023/07/29 08:14:29;;;;;;;7.82;7.13;;;22.60;99.90;;;;;;5068955;28;20235;-73
2023/07/29 08:17:17;;;;;;;7.30;6.60;;;22.90;99.90;;;;;;5068730;28;20223;-73
2023/07/29 08:20:08;;;;;;;7.40;6.70;;;23.80;99.90;;;;;;5075012;28;20630;-74
2023/07/29 08:22:57;;;;;;;7.75;7.05;;;23.70;99.90;;;;;;5075269;28;20618;-71
2023/07/29 08:25:46;;;;;;;7.97;6.05;;;23.30;99.90;;;;;;5069039;28;20301;-72
2023/07/29 08:28:39;;;;;;;7.10;6.40;;;22.70;99.90;;;;;;5054608;28;20591;-72
2023/07/29 08:31:28;;;;;;;5.65;5.15;;;23.80;99.90;;;;;;5063494;28;20502;-73
2023/07/29 08:34:17;;;;;;;6.00;5.40;;;25.00;99.90;;;;;;5062556;28;20263;-73
2023/07/29 08:37:06;;;;;;;7.60;6.22;;;25.40;99.90;;;;;;5074181;28;20398;-72
2023/07/29 08:39:55;;;;;;;7.97;5.20;;;25.80;99.90;;;;;;5074972;28;20235;-72
2023/07/29 08:42:47;;;;;;;6.32;5.72;;;25.30;99.90;;;;;;5078721;28;20215;-72
2023/07/29 08:45:38;;;;;;;5.50;3.95;;;25.00;99.90;;;;;;5071752;28;20227;-73
2023/07/29 08:48:34;;;;;;;4.15;3.75;;;25.30;99.90;;;;;;5069236;28;20224;-72
2023/07/29 08:51:24;;;;;;;6.47;4.85;;;26.70;99.90;;;;;;5076349;28;20227;-72
2023/07/29 08:54:14;;;;;;;5.50;5.00;;;27.10;99.90;;;;;;5066574;28;20243;-72
2023/07/29 08:57:03;;;;;;;5.57;5.03;;;27.70;99.90;;;;;;5071871;28;20346;-72
2023/07/29 08:59:52;;;;;;;4.80;4.30;;;28.00;99.90;;;;;;5071085;28;20223;-72
2023/07/29 09:02:42;;;;;;;4.78;4.38;;;27.30;99.90;;;;;;5074165;28;20212;-72
2023/07/29 09:05:32;;;;;;;3.88;3.15;;;27.30;99.90;;;;;;5071104;28;20352;-73
2023/07/29 09:08:21;;;;;;;3.53;2.60;;;27.50;99.90;;;;;;5064548;28;20232;-73
2023/07/29 09:11:10;;;;;;;4.07;3.70;;;26.90;99.90;;;;;;5073242;28;20848;-73
2023/07/29 09:13:59;;;;;;;3.28;2.97;;;27.50;99.90;;;;;;5061744;28;20215;-73
2023/07/29 09:16:48;;;;;;;3.47;3.17;;;28.10;99.90;;;;;;5074845;28;20310;-73
2023/07/29 09:19:39;;;;;;;3.40;3.10;;;29.00;99.90;;;;;;5082321;28;20298;-73
2023/07/29 09:22:28;;;;;;;3.75;3.30;;;29.30;99.90;;;;;;5074366;28;20219;-72
2023/07/29 09:25:23;;;;;;;3.55;3.05;;;29.20;99.90;;;;;;5068566;28;20257;-73
2023/07/29 09:28:13;;;;;;;3.97;3.58;;;28.50;99.90;;;;;;5058358;28;20303;-73
2023/07/29 09:31:03;;;;;;;3.70;3.40;;;27.60;99.90;;;;;;5073278;28;20215;-73
2023/07/29 09:33:57;;;;;;;3.40;3.10;;;27.70;99.90;;;;;;5072851;28;20219;-74
2023/07/29 09:36:51;;;;;;;4.57;2.95;;;28.60;99.90;;;;;;5072093;28;20298;-74
2023/07/29 09:39:45;;;;;;;3.30;2.97;;;30.00;99.90;;;;;;5069962;28;20261;-73
2023/07/29 09:42:34;;;;;;;3.20;2.90;;;30.70;99.90;;;;;;5075120;28;20215;-74
2023/07/29 09:45:24;;;;;;;2.88;2.67;;;30.70;99.90;;;;;;5074292;28;20240;-74
2023/07/29 09:48:13;;;;;;;3.70;2.53;;;29.90;99.90;;;;;;5076860;28;20227;-74
2023/07/29 09:51:11;;;;;;;2.88;2.67;;;31.40;99.90;;;;;;5058888;28;20896;-74
2023/07/29 09:54:04;;;;;;;2.90;2.60;;;31.40;99.90;;;;;;5057309;28;20223;-74
2023/07/29 09:56:53;;;;;;;2.60;2.30;;;32.70;99.90;;;;;;5078758;28;20219;-75
2023/07/29 09:59:41;;;;;;;4.55;2.30;;;32.20;99.90;;;;;;5077256;28;20229;-74
2023/07/29 10:02:30;;;;;;;4.28;2.55;;;33.10;99.00;;;;;;5068404;28;20233;-71
2023/07/29 10:05:21;;;;;;;4.30;2.20;;;34.40;97.60;;;;;;5066691;28;20225;-71
2023/07/29 10:08:12;;;;;;;3.03;2.30;;;35.10;94.70;;;;;;5072989;28;20264;-72
2023/07/29 10:11:05;;;;;;;2.72;2.50;;;36.00;93.60;;;;;;5061828;28;20742;-72
2023/07/29 10:13:55;;;;;;;5.90;2.50;;;36.40;87.20;;;;;;5074196;28;20713;-72
2023/07/29 10:16:56;;;;;;;2.50;2.30;;;36.30;84.20;;;;;;5068568;28;20237;-72
2023/07/29 10:19:47;;;;;;;2.70;2.50;;;35.90;82.70;;;;;;5082924;28;20226;-72
2023/07/29 10:22:40;;;;;;;4.25;2.08;;;36.70;85.00;;;;;;5066220;28;20249;-72
2023/07/29 10:25:36;;;;;;;2.40;2.15;;;38.00;79.60;;;;;;5057083;28;20224;-73
2023/07/29 10:28:31;;;;;;;2.25;2.08;;;38.40;83.20;;;;;;5074598;28;20231;-73
2023/07/29 10:31:22;;;;;;;2.28;2.08;;;38.90;77.80;;;;;;5075165;28;20226;-73
2023/07/29 10:34:13;;;;;;;1.90;1.80;;;39.50;76.00;;;;;;5067616;28;20223;-73
2023/07/29 10:37:02;;;;;;;2.35;2.15;;;37.70;70.10;;;;;;5071498;28;20214;-72
2023/07/29 10:39:55;;;;;;;2.35;2.15;;;34.50;83.00;;;;;;5076881;28;20238;-72
2023/07/29 10:43:03;;;;;;;2.30;2.10;;;35.40;77.60;;;;;;5067724;28;20698;-72
2023/07/29 10:45:55;;;;;;;2.28;2.08;;;36.60;79.60;;;;;;5066040;28;20231;-72
2023/07/29 10:49:03;;;;;;;2.08;1.98;;;38.50;73.90;;;;;;5068365;28;20227;-72
2023/07/29 10:51:52;;;;;;;2.85;2.00;;;35.70;68.70;;;;;;5069083;28;20223;-72
2023/07/29 10:54:46;;;;;;;2.38;1.88;;;36.90;71.00;;;;;;5069136;28;20646;-72
2023/07/29 10:57:40;;;;;;;2.60;2.00;;;38.60;67.70;;;;;;5075029;28;20311;-73
2023/07/29 11:00:31;;;;;;;1.75;1.65;;;40.60;70.50;;;;;;5075992;28;20227;-73
2023/07/29 11:03:24;;;;;;;2.22;2.03;;;39.90;63.90;;;;;;5078314;28;20757;-73
2023/07/29 11:06:13;;;;;;;2.95;1.80;;;41.00;68.50;;;;;;5062794;28;20216;-73
2023/07/29 11:09:02;;;;;;;2.97;2.00;;;42.50;61.80;;;;;;5068091;28;20218;-72
2023/07/29 11:11:51;;;;;;;2.00;1.80;;;42.30;61.80;;;;;;5076221;28;20219;-73
2023/07/29 11:14:40;;;;;;;2.10;1.90;;;43.40;61.60;;;;;;5073452;28;20219;-73
2023/07/29 11:17:32;;;;;;;5.28;2.20;;;44.30;61.00;;;;;;5061722;28;20223;-73
2023/07/29 11:20:28;;;;;;;1.90;1.80;;;44.60;56.10;;;;;;5056254;28;20228;-73
2023/07/29 11:23:17;;;;;;;1.70;1.60;;;44.00;55.60;;;;;;5068535;28;20222;-73
2023/07/29 11:26:06;;;;;;;1.80;1.70;;;43.90;55.50;;;;;;5065341;28;20397;-74
2023/07/29 11:28:56;;;;;;;1.90;1.80;;;43.70;55.70;;;;;;5052896;28;20764;-74
2023/07/29 11:31:45;;;;;;;2.67;1.85;;;43.40;57.10;;;;;;5050583;28;20257;-73
2023/07/29 11:34:34;;;;;;;2.55;1.73;;;44.80;56.80;;;;;;5058598;28;20577;-75
2023/07/29 11:37:24;;;;;;;1.90;1.80;;;43.90;55.20;;;;;;5073545;28;20238;-74
2023/07/29 11:40:16;;;;;;;2.00;1.90;;;45.00;51.50;;;;;;5076085;28;20242;-73
2023/07/29 11:43:06;;;;;;;1.92;1.83;;;45.70;52.40;;;;;;5084774;28;20712;-73
2023/07/29 11:45:55;;;;;;;2.20;1.90;;;47.40;51.40;;;;;;5069569;28;20229;-73
2023/07/29 11:48:46;;;;;;;2.22;1.90;;;46.30;50.10;;;;;;5078300;28;20219;-73
2023/07/29 11:51:35;;;;;;;2.15;1.70;;;46.50;50.40;;;;;;5078861;28;20227;-73
2023/07/29 11:54:26;;;;;;;2.00;1.75;;;48.70;48.00;;;;;;5073637;28;20654;-74
2023/07/29 11:57:16;;;;;;;1.80;1.65;;;49.10;50.10;;;;;;5063850;28;20234;-74
2023/07/29 12:00:07;;;;;;;2.88;1.67;;;45.10;50.10;;;;;;5055759;28;20226;-74
2023/07/29 12:02:56;;;;;;;1.85;1.70;;;47.70;48.00;;;;;;5060443;28;20381;-73
2023/07/29 12:05:49;;;;;;;2.80;1.80;;;47.90;49.30;;;;;;5071653;28;20227;-73
2023/07/29 12:08:38;;;;;;;2.47;1.77;;;49.50;46.40;;;;;;5078576;28;20219;-74
2023/07/29 12:11:29;;;;;;;1.80;1.70;;;50.80;46.80;;;;;;5074642;28;20721;-73
2023/07/29 12:14:18;;;;;;;1.80;1.70;;;50.80;46.40;;;;;;5073189;28;20316;-74
2023/07/29 12:17:08;;;;;;;1.80;1.70;;;49.00;44.10;;;;;;5068801;28;20215;-74
2023/07/29 12:19:57;;;;;;;1.70;1.60;;;44.90;46.50;;;;;;5090536;28;20231;-74
2023/07/29 12:22:46;;;;;;;1.63;1.50;;;45.40;47.20;;;;;;5084631;28;20223;-75
2023/07/29 12:25:35;;;;;;;2.13;1.80;;;47.00;46.90;;;;;;5078091;28;20270;-75
2023/07/29 12:28:26;;;;;;;1.90;1.70;;;49.20;44.50;;;;;;5079568;28;20223;-75
2023/07/29 12:31:14;;;;;;;2.60;1.42;;;50.10;45.90;;;;;;5074061;28;20611;-74
2023/07/29 12:34:03;;;;;;;4.32;4.03;;;50.60;43.50;;;;;;5072229;28;20269;-73
2023/07/29 12:36:54;;;;;;;4.47;3.78;;;44.00;44.80;;;;;;5074155;28;20382;-74
2023/07/29 12:39:43;;;;;;;5.07;4.68;;;46.00;47.40;;;;;;5068321;28;20256;-75
2023/07/29 12:42:31;;;;;;;2.38;2.17;;;46.60;47.00;;;;;;5082243;28;20757;-74
2023/07/29 12:45:22;;;;;;;2.30;2.10;;;42.00;48.50;;;;;;5064783;28;20231;-74
2023/07/29 12:48:11;;;;;;;2.40;1.90;;;38.30;54.10;;;;;;5062220;28;20241;-74
2023/07/29 12:51:00;;;;;;;2.53;2.33;;;36.00;56.90;;;;;;5079317;28;20219;-74
2023/07/29 12:53:49;;;;;;;2.58;2.08;;;34.90;59.70;;;;;;5074117;28;20353;-73
2023/07/29 12:56:38;;;;;;;5.63;2.33;;;33.80;63.00;;;;;;5076892;28;20284;-74
2023/07/29 12:59:27;;;;;;;2.95;1.92;;;33.20;64.20;;;;;;5067384;28;20679;-73
2023/07/29 13:02:17;;;;;;;2.13;1.95;;;32.70;63.70;;;;;;5062115;28;20331;-73
2023/07/29 13:05:11;;;;;;;2.35;2.15;;;31.90;66.50;;;;;;5062196;28;20790;-73
2023/07/29 13:08:00;;;;;;;3.08;2.85;;;31.30;69.60;;;;;;5080559;28;20530;-73
2023/07/29 13:10:49;;;;;;;3.65;3.35;;;31.00;74.70;;;;;;5076684;28;20923;-73
2023/07/29 13:13:38;;;;;;;4.60;2.70;;;30.70;74.90;;;;;;5076010;28;20268;-74
2023/07/29 13:16:28;;;;;;;3.05;2.20;;;30.50;76.10;;;;;;5077753;28;20336;-73
2023/07/29 13:19:22;;;;;;;6.20;3.20;;;30.40;74.70;;;;;;5080828;28;20227;-73
2023/07/29 13:22:11;;;;;;;4.03;2.17;;;30.20;75.20;;;;;;5070856;28;20226;-72
2023/07/29 13:25:00;;;;;;;3.40;2.40;;;30.20;74.20;;;;;;5076650;28;20445;-73
2023/07/29 13:27:49;;;;;;;2.47;2.30;;;29.80;76.70;;;;;;5063061;28;20583;-73
2023/07/29 13:30:38;;;;;;;2.53;2.33;;;29.70;77.20;;;;;;5065387;28;20226;-74
2023/07/29 13:33:27;;;;;;;4.10;2.88;;;29.80;78.80;;;;;;5079808;28;20232;-74
2023/07/29 13:36:18;;;;;;;6.03;5.53;;;29.60;78.10;;;;;;5071582;28;20797;-74
2023/07/29 13:39:07;;;;;;;5.95;2.97;;;29.50;80.30;;;;;;5064627;28;21293;-73
2023/07/29 13:41:56;;;;;;;2.85;2.60;;;29.40;81.20;;;;;;5081858;28;20211;-73
2023/07/29 13:44:45;;;;;;;2.60;2.40;;;29.50;81.10;;;;;;5081165;28;20231;-73
2023/07/29 13:47:34;;;;;;;7.13;2.78;;;29.30;79.50;;;;;;5071424;28;20345;-74
2023/07/29 13:50:23;;;;;;;2.53;2.15;;;29.10;81.10;;;;;;5076500;28;20254;-74
2023/07/29 13:53:13;;;;;;;8.55;7.78;;;28.90;80.20;;;;;;5072890;28;20218;-74
2023/07/29 13:56:02;;;;;;;5.07;4.65;;;28.60;83.70;;;;;;5076107;28;20222;-73
2023/07/29 13:58:51;;;;;;;4.18;3.55;;;28.50;84.30;;;;;;5079955;28;20271;-73
2023/07/29 14:01:43;;;;;;;3.90;2.40;;;28.60;85.20;;;;;;5088762;28;20301;-73
2023/07/29 14:04:31;;;;;;;4.10;3.30;;;28.70;83.90;;;;;;5078180;28;20301;-74
2023/07/29 14:07:20;;;;;;;4.20;2.97;;;28.80;85.10;;;;;;5073659;28;20235;-73
2023/07/29 14:10:11;;;;;;;4.15;3.35;;;28.70;83.70;;;;;;5077617;28;20225;-73
2023/07/29 14:12:59;;;;;;;3.75;2.70;;;28.70;88.00;;;;;;5058366;28;20228;-73
2023/07/29 14:15:52;;;;;;;3.38;2.50;;;28.50;85.80;;;;;;5064998;28;20238;-72
2023/07/29 14:18:40;;;;;;;3.97;3.58;;;28.60;85.60;;;;;;5075242;28;20587;-74
2023/07/29 14:21:29;;;;;;;2.83;2.63;;;28.60;87.10;;;;;;5073095;28;20227;-73
2023/07/29 14:24:19;;;;;;;2.63;2.42;;;28.60;87.30;;;;;;5063145;28;20226;-74
2023/07/29 14:27:09;;;;;;;8.02;3.00;;;28.70;86.00;;;;;;5072315;28;20219;-73
2023/07/29 14:29:58;;;;;;;3.15;2.95;;;28.80;86.40;;;;;;5051287;28;20212;-73
2023/07/29 14:32:47;;;;;;;11.27;6.65;;;28.80;86.00;;;;;;5071898;28;20224;-73